Time;durP1;ratioP1;P1;durP2;ratioP2;P2;SDS_P1;SDS_P2;PMS_P1;PMS_P2;Temp;Humidity;BMP_temperature;BMP_pressure;BME280_temperature;BME280_humidity;BME280_pressure;Samples;Min_cycle;Max_cycle;Signal;HPM_P1;HPM_P2
2023/05/24 00:01:08;;;;;;;7.30;6.70;;;;;;;14.06;100.00;-17514.66;6244748;23;20193;-60
2023/05/24 00:03:38;;;;;;;7.70;6.77;;;;;;;14.05;100.00;-16875.28;6246040;23;20571;-61
2023/05/24 00:06:05;;;;;;;8.43;6.77;;;;;;;13.97;100.00;-16873.53;6245680;23;20161;-60
2023/05/24 00:08:33;;;;;;;6.73;6.33;;;;;;;13.98;100.00;-16873.75;6245749;23;20184;-60
2023/05/24 00:11:01;;;;;;;13.90;6.30;;;;;;;13.93;100.00;-16872.63;6246072;23;20527;-61
2023/05/24 00:13:28;;;;;;;8.13;7.37;;;;;;;13.72;100.00;-17506.94;6246128;23;20622;-60
2023/05/24 00:15:55;;;;;;;7.47;6.77;;;;;;;13.34;100.00;-18136.56;6245754;23;20660;-61
2023/05/24 00:18:22;;;;;;;7.47;6.97;;;;;;;13.47;100.00;-17501.16;6245969;23;20465;-61
2023/05/24 00:20:50;;;;;;;7.50;7.10;;;;;;;13.37;100.00;-17179.59;6245847;23;20551;-61
2023/05/24 00:23:17;;;;;;;10.37;7.70;;;;;;;13.41;100.00;-16541.84;6245988;23;20499;-60
2023/05/24 00:25:44;;;;;;;10.00;8.73;;;;;;;13.34;100.00;-16221.13;6245474;23;20188;-61
2023/05/24 00:28:13;;;;;;;11.43;10.33;;;;;;;13.32;100.00;-15901.25;6245923;23;20647;-62
2023/05/24 00:30:41;;;;;;;16.73;12.13;;;;;;;13.43;100.00;-15264.56;6245853;23;20160;-61
2023/05/24 00:33:08;;;;;;;13.07;11.77;;;;;;;13.59;100.00;-14948.06;6245833;23;20157;-61
2023/05/24 00:35:35;;;;;;;14.33;12.63;;;;;;;13.66;100.00;-14949.41;6245962;23;20179;-62
2023/05/24 00:38:01;;;;;;;14.37;10.17;;;;;;;13.73;100.00;-14950.72;6245852;23;20488;-61
2023/05/24 00:40:28;;;;;;;10.33;9.33;;;;;;;13.61;100.00;-14628.81;6245709;23;20163;-61
2023/05/24 00:42:55;;;;;;;15.00;8.90;;;;;;;13.67;100.00;-14949.59;6245092;23;20283;-61
2023/05/24 00:45:24;;;;;;;11.67;8.87;;;;;;;13.72;100.00;-15589.81;6245112;23;20188;-60
2023/05/24 00:47:51;;;;;;;17.33;10.13;;;;;;;13.79;100.00;-15910.75;6245345;23;20226;-60
2023/05/24 00:50:19;;;;;;;11.93;10.07;;;;;;;13.39;100.00;-15902.66;6245623;23;20564;-60
2023/05/24 00:52:49;;;;;;;15.27;11.20;;;;;;;13.14;100.00;-15897.75;6245697;23;20171;-61
2023/05/24 00:55:16;;;;;;;12.80;11.07;;;;;;;13.26;100.00;-15580.84;6245375;23;20235;-62
2023/05/24 00:57:44;;;;;;;15.47;11.67;;;;;;;13.35;100.00;-15582.44;6245248;23;20161;-60
2023/05/24 01:00:12;;;;;;;19.43;13.37;;;;;;;13.34;100.00;-15262.91;6245209;23;20196;-60
2023/05/24 01:02:40;;;;;;;15.67;12.50;;;;;;;13.08;100.00;-15257.94;6245573;23;20675;-61
2023/05/24 01:05:12;;;;;;;12.93;11.73;;;;;;;13.39;100.00;-15263.78;6245093;23;20181;-61
2023/05/24 01:07:51;;;;;;;15.30;12.93;;;;;;;13.45;100.00;-14945.53;6245417;23;20230;-60
2023/05/24 01:10:30;;;;;;;16.47;11.80;;;;;;;13.43;100.00;-15264.56;6245471;23;20243;-60
2023/05/24 01:13:04;;;;;;;18.97;12.43;;;;;;;13.45;100.00;-15264.94;6244759;23;20161;-61
2023/05/24 01:15:39;;;;;;;22.60;14.80;;;;;;;13.30;100.00;-15262.13;6244964;23;20164;-61
2023/05/24 01:18:17;;;;;;;20.40;14.07;;;;;;;13.40;100.00;-15263.97;6245338;23;20156;-61
2023/05/24 01:20:46;;;;;;;23.70;16.63;;;;;;;13.36;100.00;-15263.31;6245252;23;20591;-61
2023/05/24 01:23:31;;;;;;;29.13;18.43;;;;;;;13.37;100.00;-15263.41;6245061;23;20595;-60
2023/05/24 01:26:16;;;;;;;29.47;17.73;;;;;;;13.48;100.00;-15265.53;6244924;23;20227;-60
2023/05/24 01:28:47;;;;;;;22.97;17.97;;;;;;;13.37;100.00;-15263.41;6244921;23;20211;-60
2023/05/24 01:31:15;;;;;;;19.87;17.53;;;;;;;13.42;100.00;-15264.38;6244849;23;20256;-62
2023/05/24 01:33:43;;;;;;;25.13;18.43;;;;;;;13.33;100.00;-15582.16;6244744;23;20251;-61
2023/05/24 01:36:09;;;;;;;38.73;19.23;;;;;;;13.20;100.00;-15579.56;6245272;23;20250;-60
2023/05/24 01:38:36;;;;;;;31.77;21.17;;;;;;;13.25;100.00;-14941.84;6244951;23;20153;-62
2023/05/24 01:41:11;;;;;;;38.57;21.30;;;;;;;13.34;100.00;-14623.84;6244801;23;20171;-61
2023/05/24 01:43:43;;;;;;;26.50;21.23;;;;;;;13.34;100.00;-14623.94;6244614;23;20202;-61
2023/05/24 01:46:18;;;;;;;28.77;19.97;;;;;;;13.17;100.00;-14620.91;6245081;23;20659;-60
2023/05/24 01:48:54;;;;;;;30.53;21.17;;;;;;;13.17;100.00;-14301.38;6244792;23;20162;-61
2023/05/24 01:51:28;;;;;;;30.03;22.03;;;;;;;13.35;100.00;-13984.94;6245038;23;20494;-61
2023/05/24 01:53:58;;;;;;;29.60;22.33;;;;;;;13.15;100.00;-14301.03;6244695;23;20237;-60
2023/05/24 01:56:27;;;;;;;37.90;21.17;;;;;;;13.30;100.00;-14303.72;6244592;23;20159;-61
2023/05/24 01:58:56;;;;;;;35.13;22.13;;;;;;;13.11;100.00;-14300.31;6244648;23;20192;-61
2023/05/24 02:01:25;;;;;;;28.40;20.77;;;;;;;13.28;100.00;-14303.44;6244590;23;20157;-61
2023/05/24 02:03:52;;;;;;;25.90;20.47;;;;;;;13.47;100.00;-14306.66;6244881;23;20157;-61
2023/05/24 02:06:19;;;;;;;34.77;21.13;;;;;;;13.39;100.00;-14305.31;6244412;23;20176;-61
2023/05/24 02:08:46;;;;;;;29.27;21.77;;;;;;;13.70;100.00;-14310.84;6244523;23;20165;-60
2023/05/24 02:11:13;;;;;;;30.90;22.30;;;;;;;13.56;100.00;-13668.97;6244779;23;20219;-61
2023/05/24 02:13:40;;;;;;;30.60;21.40;;;;;;;13.75;100.00;-13991.88;6244551;23;20239;-60
2023/05/24 02:16:07;;;;;;;33.67;21.73;;;;;;;13.70;100.00;-14310.84;6244826;23;20153;-61
2023/05/24 02:18:35;;;;;;;36.17;22.60;;;;;;;13.69;100.00;-14630.38;6244813;23;20161;-61
2023/05/24 02:21:02;;;;;;;29.50;21.33;;;;;;;13.69;100.00;-14949.97;6244711;23;20157;-61
2023/05/24 02:23:29;;;;;;;30.50;20.70;;;;;;;13.69;100.00;-14630.28;6244349;23;20496;-61
2023/05/24 02:25:56;;;;;;;33.63;21.57;;;;;;;13.75;100.00;-14631.41;6244297;23;20181;-60
2023/05/24 02:28:23;;;;;;;31.13;22.60;;;;;;;13.78;100.00;-14951.66;6244762;23;20464;-61
2023/05/24 02:30:50;;;;;;;24.53;21.90;;;;;;;13.81;100.00;-14952.13;6244874;23;20161;-61
2023/05/24 02:33:17;;;;;;;30.93;22.33;;;;;;;13.88;100.00;-15273.31;6244396;23;20164;-62
2023/05/24 02:35:45;;;;;;;35.23;23.57;;;;;;;13.94;100.00;-15274.38;6244413;23;20153;-61
2023/05/24 02:38:12;;;;;;;42.47;26.17;;;;;;;14.10;100.00;-15277.56;6244325;23;20167;-60
2023/05/24 02:40:39;;;;;;;46.93;26.93;;;;;;;13.90;100.00;-15593.41;6244272;23;20163;-60
2023/05/24 02:43:06;;;;;;;40.97;27.33;;;;;;;14.17;100.00;-15598.78;6244043;23;20210;-60
2023/05/24 02:45:33;;;;;;;41.07;26.83;;;;;;;14.23;100.00;-15599.88;6244144;23;20191;-61
2023/05/24 02:48:00;;;;;;;47.97;26.70;;;;;;;14.34;100.00;-15921.88;6244262;23;20192;-60
2023/05/24 02:50:26;;;;;;;45.57;27.60;;;;;;;14.42;100.00;-15923.53;6244102;23;20164;-61
2023/05/24 02:52:55;;;;;;;35.07;26.53;;;;;;;14.50;100.00;-16245.13;6244454;23;20157;-61
2023/05/24 02:55:22;;;;;;;44.53;27.83;;;;;;;14.53;100.00;-16245.75;6244548;23;20244;-60
2023/05/24 02:57:49;;;;;;;35.33;27.07;;;;;;;14.51;100.00;-16245.34;6244402;23;20477;-61
2023/05/24 03:00:17;;;;;;;47.47;30.67;;;;;;;14.50;100.00;-16565.16;6244392;23;20585;-61
2023/05/24 03:02:49;;;;;;;63.83;38.83;;;;;;;14.46;100.00;-16564.31;6244076;23;20218;-60
2023/05/24 03:05:16;;;;;;;54.40;34.03;;;;;;;14.68;100.00;-16568.81;6243940;23;20231;-61
2023/05/24 03:07:43;;;;;;;58.33;37.50;;;;;;;14.73;100.00;-16569.97;6244397;23;20157;-61
2023/05/24 03:10:11;;;;;;;69.93;44.37;;;;;;;14.76;100.00;-16570.63;6244425;23;20157;-61
2023/05/24 03:12:38;;;;;;;59.33;36.50;;;;;;;14.74;100.00;-16890.22;6244037;23;20239;-60
2023/05/24 03:15:07;;;;;;;94.00;56.83;;;;;;;14.84;100.00;-17212.34;6243995;23;20153;-61
2023/05/24 03:17:34;;;;;;;88.80;55.13;;;;;;;14.83;100.00;-17212.13;6244297;23;20240;-60
2023/05/24 03:20:00;;;;;;;96.47;59.97;;;;;;;14.85;100.00;-17532.69;6244290;23;20168;-60
2023/05/24 03:22:27;;;;;;;100.77;58.23;;;;;;;14.86;100.00;-17532.94;6243973;23;20215;-60
2023/05/24 03:24:55;;;;;;;108.80;64.50;;;;;;;14.91;100.00;-17534.09;6244384;23;20580;-62
2023/05/24 03:27:23;;;;;;;102.70;63.30;;;;;;;14.90;100.00;-17853.88;6244328;23;20258;-62
2023/05/24 03:29:50;;;;;;;91.23;60.30;;;;;;;14.97;100.00;-17855.50;6244534;23;20588;-62
2023/05/24 03:32:16;;;;;;;104.27;64.60;;;;;;;15.02;100.00;-18176.72;6244009;23;20639;-61
2023/05/24 03:34:43;;;;;;;91.50;60.50;;;;;;;15.11;100.00;-18180.53;6244342;23;20157;-60
2023/05/24 03:37:10;;;;;;;93.23;59.80;;;;;;;15.02;100.00;-18178.50;6245973;23;20171;-61
2023/05/24 03:39:37;;;;;;;102.63;61.07;;;;;;;14.99;100.00;-18177.88;6246769;23;20484;-61
2023/05/24 03:42:04;;;;;;;87.03;56.00;;;;;;;15.07;100.00;-18179.81;6245787;23;20258;-60
2023/05/24 03:44:32;;;;;;;97.53;58.03;;;;;;;15.13;100.00;-18181.00;6246086;23;20157;-60
2023/05/24 03:47:00;;;;;;;84.10;52.70;;;;;;;15.28;100.00;-18184.72;6245862;23;20177;-62
2023/05/24 03:49:27;;;;;;;76.60;50.80;;;;;;;15.36;100.00;-18186.53;6245829;23;20248;-61
2023/05/24 03:51:54;;;;;;;86.37;53.90;;;;;;;15.39;100.00;-18187.25;6246006;23;20156;-61
2023/05/24 03:54:21;;;;;;;99.60;60.20;;;;;;;15.45;100.00;-18188.81;6245959;23;20178;-61
2023/05/24 03:56:47;;;;;;;100.33;62.27;;;;;;;15.51;100.00;-18190.25;6246268;23;20507;-62
2023/05/24 03:59:14;;;;;;;100.70;62.97;;;;;;;15.51;100.00;-18190.25;6245764;23;20168;-61
2023/05/24 04:01:43;;;;;;;103.70;62.00;;;;;;;15.73;100.00;-18195.41;6245813;23;20223;-61
2023/05/24 04:04:10;;;;;;;89.97;56.57;;;;;;;15.73;100.00;-18195.41;6245751;23;20157;-61
2023/05/24 04:06:40;;;;;;;87.13;56.63;;;;;;;15.92;100.00;-18198.09;6245545;23;20181;-61
2023/05/24 04:09:08;;;;;;;89.10;55.37;;;;;;;15.97;100.00;-16917.00;6245719;23;20247;-61
2023/05/24 04:11:35;;;;;;;92.43;54.50;;;;;;;16.04;100.00;-15956.16;6246040;23;20555;-61
2023/05/24 04:14:03;;;;;;;83.30;51.67;;;;;;;15.66;100.00;-14986.75;6246016;23;20157;-61
2023/05/24 04:16:32;;;;;;;84.27;52.77;;;;;;;16.07;100.00;-14673.41;6245533;23;20215;-61
2023/05/24 04:19:02;;;;;;;81.07;51.13;;;;;;;16.07;100.00;-14031.53;6246066;23;20208;-61
2023/05/24 04:21:30;;;;;;;76.80;51.77;;;;;;;16.15;100.00;-14032.91;6245504;23;20169;-61
2023/05/24 04:23:59;;;;;;;84.53;52.47;;;;;;;16.20;100.00;-13712.72;6245640;23;20188;-62
2023/05/24 04:26:26;;;;;;;78.83;52.47;;;;;;;16.09;100.00;-12747.75;6245371;23;20213;-61
2023/05/24 04:28:53;;;;;;;74.13;49.57;;;;;;;16.02;100.00;-12425.59;6245927;23;20600;-60
2023/05/24 04:31:21;;;;;;;62.73;46.27;;;;;;;16.06;100.00;-12104.97;6245523;23;20157;-60
2023/05/24 04:33:48;;;;;;;68.07;48.07;;;;;;;16.06;100.00;-12104.97;6245478;23;20199;-62
2023/05/24 04:36:18;;;;;;;73.60;47.27;;;;;;;15.85;100.00;-13386.03;6245817;23;20188;-60
2023/05/24 04:38:46;;;;;;;74.27;46.87;;;;;;;15.73;100.00;-14346.59;6245437;23;20161;-61
2023/05/24 04:41:13;;;;;;;64.73;47.20;;;;;;;15.73;100.00;-14667.34;6245572;23;20648;-60
2023/05/24 04:43:40;;;;;;;73.77;49.30;;;;;;;15.84;100.00;-16272.94;6245316;23;20196;-60
2023/05/24 04:46:07;;;;;;;70.77;48.63;;;;;;;15.94;100.00;-17236.84;6245246;23;20185;-60
2023/05/24 04:48:34;;;;;;;80.57;50.37;;;;;;;16.04;100.00;-16597.63;6245360;23;20161;-62
2023/05/24 04:51:01;;;;;;;76.40;49.90;;;;;;;16.17;100.00;-14675.22;6245376;23;20157;-61
2023/05/24 04:53:30;;;;;;;77.40;51.10;;;;;;;16.27;100.00;-13392.84;6245252;23;20168;-60
2023/05/24 04:55:57;;;;;;;77.57;50.20;;;;;;;16.41;100.00;-13073.88;6245319;23;20164;-61
2023/05/24 04:58:24;;;;;;;86.70;48.80;;;;;;;16.60;100.00;-12433.97;6245156;23;20187;-61
2023/05/24 05:00:51;;;;;;;87.27;52.10;;;;;;;16.78;100.00;-11150.44;6245534;23;20161;-61
2023/05/24 05:03:18;;;;;;;79.60;50.13;;;;;;;16.92;100.00;-10186.84;6245214;23;20163;-61
2023/05/24 05:05:45;;;;;;;74.23;52.43;;;;;;;17.02;100.00;-8900.38;6245474;23;20231;-61
2023/05/24 05:08:12;;;;;;;97.63;51.27;;;;;;;17.16;100.00;-7935.34;6245577;23;20248;-62
2023/05/24 05:10:41;;;;;;;85.87;52.07;;;;;;;17.14;100.00;-7613.03;6245444;23;20546;-61
2023/05/24 05:13:08;;;;;;;76.63;51.93;;;;;;;17.21;100.00;-8257.84;6245543;23;20473;-60
2023/05/24 05:15:34;;;;;;;79.37;51.20;;;;;;;17.33;100.00;-8903.16;6245415;23;20503;-62
2023/05/24 05:18:01;;;;;;;76.27;51.33;;;;;;;17.34;100.00;-9547.41;6245215;23;20237;-62
2023/05/24 05:20:28;;;;;;;73.20;50.13;;;;;;;17.46;100.00;-10514.84;6245044;23;20168;-61
2023/05/24 05:22:55;;;;;;;70.90;50.77;;;;;;;16.50;100.00;-10825.34;6244948;23;20171;-62
2023/05/24 05:25:22;;;;;;;72.80;52.27;;;;;;;17.61;100.00;-9227.84;6244807;23;20156;-61
2023/05/24 05:27:50;;;;;;;75.67;53.20;;;;;;;17.75;100.00;-7939.63;6244924;23;20192;-61
2023/05/24 05:30:17;;;;;;;82.77;54.13;;;;;;;17.93;100.00;-5359.69;6245340;23;20179;-62
2023/05/24 05:32:44;;;;;;;98.13;58.37;;;;;;;17.98;100.00;-2776.31;6245208;23;20161;-61
2023/05/24 05:35:11;;;;;;;82.00;56.37;;;;;;;18.10;100.00;1103.69;6245263;23;20496;-62
2023/05/24 05:37:38;;;;;;;95.73;60.27;;;;;;;18.27;100.00;4666.41;6244838;23;20157;-62
2023/05/24 05:40:06;;;;;;;90.13;62.27;;;;;;;18.56;100.00;13432.50;6245237;23;20595;-62
2023/05/24 05:42:33;;;;;;;99.23;64.97;;;;;;;18.88;100.00;15717.78;6244512;23;20204;-61
2023/05/24 05:45:01;;;;;;;86.17;59.20;;;;;;;18.91;100.00;37262.69;6244956;23;20157;-62
2023/05/24 05:47:28;;;;;;;89.60;57.77;;;;;;;19.13;100.00;47119.53;6244998;23;20493;-61
2023/05/24 05:49:55;;;;;;;79.27;53.67;;;;;;;19.38;100.00;50099.59;6244493;23;20165;-62
2023/05/24 05:52:22;;;;;;;78.07;53.87;;;;;;;19.54;100.00;51759.28;6244645;23;20157;-62
2023/05/24 05:54:49;;;;;;;77.93;52.20;;;;;;;19.95;100.00;53113.19;6244710;23;20243;-62
2023/05/24 05:57:18;;;;;;;73.53;53.13;;;;;;;20.44;100.00;83639.16;6244382;23;20157;-62
2023/05/24 05:59:45;;;;;;;69.97;48.97;;;;;;;20.47;100.00;90972.19;6244437;23;20256;-62
2023/05/24 06:02:13;;;;;;;71.43;47.53;;;;;;;20.82;100.00;122200.00;6244516;23;20164;-62
2023/05/24 06:04:40;;;;;;;80.37;49.17;;;;;;;20.96;100.00;124250.06;6244417;23;20223;-62
2023/05/24 06:07:07;;;;;;;67.37;45.67;;;;;;;21.07;100.00;139132.53;6244679;23;20185;-62
2023/05/24 06:09:34;;;;;;;54.25;40.92;;;;;;;21.19;100.00;151364.13;6244350;23;20161;-62
2023/05/24 06:12:01;;;;;;;52.30;39.50;;;;;;;20.92;100.00;134701.38;6244435;23;20499;-62
2023/05/24 06:14:28;;;;;;;60.53;38.83;;;;;;;21.05;100.00;151329.66;6244722;23;20191;-61
2023/05/24 06:16:55;;;;;;;55.10;39.87;;;;;;;20.87;100.00;114473.13;6244763;23;20410;-61
2023/05/24 06:19:23;;;;;;;62.90;40.97;;;;;;;20.89;100.00;102067.22;6244796;23;20491;-61
2023/05/24 06:21:50;;;;;;;57.72;35.58;;;;;;;20.94;100.00;101406.25;6244207;23;20157;-61
2023/05/24 06:24:19;;;;;;;44.58;30.05;;;;;;;21.04;100.00;121234.00;6244787;23;20584;-62
2023/05/24 06:26:46;;;;;;;42.40;29.70;;;;;;;21.24;100.00;145829.22;6244174;23;20268;-62
2023/05/24 06:29:13;;;;;;;46.40;30.63;;;;;;;21.53;100.00;151025.97;6244602;23;20192;-62
2023/05/24 06:31:42;;;;;;;48.50;28.20;;;;;;;21.68;100.00;151489.03;6244299;23;20161;-61
2023/05/24 06:34:09;;;;;;;33.60;24.95;;;;;;;21.73;100.00;151501.75;6218236;23;20161;-61
2023/05/24 06:36:40;;;;;;;31.65;25.27;;;;;;;21.82;100.00;151524.72;6244417;23;20521;-61
2023/05/24 06:39:07;;;;;;;25.77;23.33;;;;;;;22.00;100.00;151569.38;6244253;23;20163;-62
2023/05/24 06:41:34;;;;;;;29.20;23.50;;;;;;;22.85;100.00;151783.66;6243913;23;20161;-63
2023/05/24 06:44:01;;;;;;;24.45;22.05;;;;;;;23.34;100.00;151906.16;6244125;23;20157;-62
2023/05/24 06:46:28;;;;;;;23.85;21.50;;;;;;;23.27;100.00;151889.56;6244032;23;20181;-63
2023/05/24 06:48:55;;;;;;;25.00;22.55;;;;;;;22.81;100.00;151772.19;6244675;23;20604;-62
2023/05/24 06:51:22;;;;;;;24.02;21.58;;;;;;;22.99;100.00;151818.13;6244488;23;20602;-62
2023/05/24 06:53:50;;;;;;;24.75;22.27;;;;;;;22.72;100.00;151751.78;6244513;23;20606;-63
2023/05/24 06:56:17;;;;;;;36.78;24.77;;;;;;;22.53;100.00;151702.00;6244316;23;20542;-62
2023/05/24 06:58:44;;;;;;;33.25;24.60;;;;;;;22.26;100.00;151634.41;6244031;23;20243;-62
2023/05/24 07:01:11;;;;;;;31.08;21.70;;;;;;;22.20;100.00;151620.38;6244119;23;20235;-62
2023/05/24 07:03:38;;;;;;;28.35;21.05;;;;;;;22.06;100.00;151584.69;6244064;23;20161;-62
2023/05/24 07:06:06;;;;;;;25.67;17.95;;;;;;;22.10;100.00;151594.91;6244260;23;20185;-62
2023/05/24 07:08:33;;;;;;;15.20;13.80;;;;;;;22.06;100.00;151583.41;6244282;23;20251;-61
2023/05/24 07:11:02;;;;;;;16.50;13.93;;;;;;;22.18;100.00;151615.28;6243612;23;20496;-61
2023/05/24 07:13:29;;;;;;;7.53;6.93;;;;;;;22.08;100.00;151589.78;6243974;23;20156;-62
2023/05/24 07:15:55;;;;;;;6.55;5.07;;;;;;;22.28;100.00;151640.75;6244430;23;20161;-62
2023/05/24 07:18:22;;;;;;;3.20;3.10;;;;;;;22.35;100.00;151656.09;6244238;23;20587;-62
2023/05/24 07:20:49;;;;;;;7.15;6.43;;;;;;;22.47;100.00;151686.69;6243981;23;20235;-62
2023/05/24 07:23:16;;;;;;;9.45;7.47;;;;;;;22.54;100.00;151705.81;6243826;23;20588;-62
2023/05/24 07:25:43;;;;;;;8.55;8.10;;;;;;;22.52;100.00;151699.44;6244203;23;20157;-62
2023/05/24 07:28:13;;;;;;;12.05;11.13;;;;;;;22.80;100.00;151769.63;6243740;23;20181;-62
2023/05/24 07:30:39;;;;;;;14.63;10.02;;;;;;;22.73;100.00;151753.06;6244195;23;20215;-62
2023/05/24 07:33:06;;;;;;;15.40;9.85;;;;;;;22.89;100.00;151793.88;6243740;23;20179;-62
2023/05/24 07:35:33;;;;;;;11.60;10.70;;;;;;;23.16;100.00;151862.78;6243751;23;20157;-62
2023/05/24 07:38:00;;;;;;;11.38;10.48;;;;;;;23.03;100.00;151829.59;6244135;23;20305;-62
2023/05/24 07:40:27;;;;;;;12.18;11.25;;;;;;;23.31;100.00;151898.47;6243967;23;20539;-62
2023/05/24 07:42:54;;;;;;;11.10;9.93;;;;;;;23.31;100.00;151898.47;6243376;23;20207;-62
2023/05/24 07:45:23;;;;;;;12.60;11.75;;;;;;;23.22;100.00;151878.06;6243669;23;20161;-62
2023/05/24 07:47:50;;;;;;;11.98;10.88;;;;;;;23.54;100.00;151957.25;6243693;23;20183;-62
2023/05/24 07:50:17;;;;;;;10.88;9.90;;;;;;;23.62;100.00;151978.94;6243736;23;20163;-62
2023/05/24 07:52:44;;;;;;;10.60;9.70;;;;;;;23.79;100.00;152021.06;6244239;23;20622;-61
2023/05/24 07:55:11;;;;;;;9.35;8.43;;;;;;;24.00;100.00;152074.69;6243832;23;20565;-62
2023/05/24 07:57:38;;;;;;;10.32;9.32;;;;;;;24.13;100.00;152107.88;6243646;23;20157;-63
2023/05/24 08:00:13;;;;;;;10.38;9.23;;;;;;;24.45;100.00;152188.34;6243677;23;20157;-62
2023/05/24 08:02:41;;;;;;;10.50;9.45;;;;;;;24.65;100.00;152238.16;6243693;23;20255;-63
2023/05/24 08:05:09;;;;;;;9.75;9.07;;;;;;;24.85;100.00;152287.97;6243643;23;20168;-62
2023/05/24 08:07:36;;;;;;;8.80;7.95;;;;;;;25.34;100.00;152411.91;6243896;23;20713;-63
2023/05/24 08:10:03;;;;;;;9.35;8.73;;;;;;;25.44;100.00;152438.78;6243931;23;20176;-62
2023/05/24 08:12:30;;;;;;;9.07;8.57;;;;;;;24.80;100.00;152275.19;6243638;23;20161;-61
2023/05/24 08:14:57;;;;;;;8.68;8.13;;;;;;;24.95;100.00;152314.81;6243657;23;20156;-64
2023/05/24 08:17:25;;;;;;;8.57;7.85;;;;;;;24.91;100.00;152304.59;6243496;23;20153;-62
2023/05/24 08:19:53;;;;;;;6.93;6.32;;;;;;;24.47;100.00;152193.47;6243976;23;20240;-63
2023/05/24 08:22:20;;;;;;;7.75;7.15;;;;;;;24.48;100.00;152196.03;6244850;23;20604;-62
2023/05/24 08:24:47;;;;;;;8.63;7.88;;;;;;;24.43;100.00;152181.97;6245911;23;20165;-63
2023/05/24 08:27:14;;;;;;;6.38;6.03;;;;;;;23.84;100.00;152033.84;6245335;23;20255;-62
2023/05/24 08:29:41;;;;;;;7.05;6.65;;;;;;;24.11;100.00;152101.47;6245837;23;20211;-61
2023/05/24 08:32:09;;;;;;;9.35;8.75;;;;;;;24.48;100.00;152196.03;6245331;23;20161;-62
2023/05/24 08:34:36;;;;;;;10.68;10.10;;;;;;;24.36;100.00;152165.34;6245652;23;20161;-63
2023/05/24 08:37:05;;;;;;;9.18;8.52;;;;;;;24.31;100.00;152152.63;6245448;23;20153;-62
2023/05/24 08:39:32;;;;;;;8.27;7.95;;;;;;;24.55;100.00;152212.59;6245283;23;20161;-62
2023/05/24 08:41:59;;;;;;;8.23;7.68;;;;;;;24.90;100.00;152302.09;6245339;23;20204;-63
2023/05/24 08:44:28;;;;;;;8.05;7.15;;;;;;;25.25;100.00;152388.97;6245215;23;20161;-62
2023/05/24 08:46:56;;;;;;;7.95;6.55;;;;;;;25.27;100.00;152394.03;6245374;23;20242;-62
2023/05/24 08:49:23;;;;;;;6.45;6.05;;;;;;;24.99;100.00;152325.03;6245466;23;20157;-62
2023/05/24 08:51:52;;;;;;;5.40;4.68;;;;;;;24.73;100.00;152258.59;6245390;23;20161;-62
2023/05/24 08:54:21;;;;;;;5.15;4.85;;;;;;;24.78;100.00;152270.09;6245276;23;20165;-62
2023/05/24 08:56:49;;;;;;;4.90;4.30;;;;;;;24.40;100.00;152174.31;6245254;23;20153;-61
2023/05/24 08:59:16;;;;;;;4.00;3.80;;;;;;;24.37;100.00;152166.63;6245413;23;20234;-62
2023/05/24 09:01:48;;;;;;;4.22;3.92;;;;;;;23.78;100.00;152017.22;6245112;23;20160;-63
2023/05/24 09:04:15;;;;;;;3.80;3.45;;;;;;;23.61;100.00;151976.38;6245361;23;20610;-62
2023/05/24 09:06:43;;;;;;;6.60;4.10;;;;;;;23.21;100.00;151875.50;6245017;23;20181;-61
2023/05/24 09:09:11;;;;;;;3.20;3.05;;;;;;;22.80;100.00;151770.91;6245087;23;20157;-62
2023/05/24 09:11:41;;;;;;;4.90;4.10;;;;;;;23.21;100.00;151875.50;6245166;23;20235;-62
2023/05/24 09:14:09;;;;;;;11.07;3.50;;;;;;;23.06;100.00;151837.25;6245040;23;20168;-61
2023/05/24 09:16:35;;;;;;;4.70;3.97;;;;;;;;;;6244881;23;20219;-63
2023/05/24 09:19:02;;;;;;;7.70;4.20;;;;;;;22.83;100.00;151778.53;6245594;23;20164;-63
2023/05/24 09:21:31;;;;;;;3.85;3.65;;;;;;;22.77;100.00;151764.53;6245305;23;20167;-62
2023/05/24 09:23:58;;;;;;;3.90;3.50;;;;;;;23.09;100.00;151843.59;6245365;23;20647;-61
2023/05/24 09:26:28;;;;;;;5.97;3.67;;;;;;;23.05;100.00;151834.69;6244765;23;20240;-63
2023/05/24 09:28:57;;;;;;;4.07;3.35;;;;;;;23.15;100.00;151858.94;6244934;23;20192;-62
2023/05/24 09:31:32;;;;;;;3.50;3.30;;;;;;;23.13;100.00;151853.81;6244820;23;20227;-62
2023/05/24 09:33:59;;;;;;;6.10;3.17;;;;;;;23.24;100.00;151881.91;6244923;23;20487;-61
2023/05/24 09:36:28;;;;;;;4.35;3.97;;;;;;;23.29;100.00;151894.69;6245197;23;20164;-61
2023/05/24 09:39:07;;;;;;;4.60;4.30;;;;;;;23.02;100.00;151825.75;6244746;23;20161;-62
2023/05/24 09:41:34;;;;;;;6.20;4.25;;;;;;;23.07;100.00;151839.81;6244680;23;20503;-61
2023/05/24 09:44:03;;;;;;;4.72;4.53;;;;;;;22.77;100.00;151763.25;6245316;23;20494;-61
2023/05/24 09:46:37;;;;;;;4.28;3.90;;;;;;;22.70;100.00;151745.41;6244678;23;20181;-62
2023/05/24 09:49:05;;;;;;;4.00;3.72;;;;;;;22.49;100.00;151691.81;6245011;23;20161;-62
2023/05/24 09:51:36;;;;;;;4.35;4.10;;;;;;;22.01;100.00;151570.66;6245193;23;20157;-63
2023/05/24 09:54:04;;;;;;;3.33;3.05;;;;;;;21.65;100.00;151480.09;6245201;23;20154;-61
2023/05/24 09:56:33;;;;;;;3.90;3.70;;;;;;;21.79;100.00;151517.06;6244687;23;20157;-62
2023/05/24 09:59:08;;;;;;;3.70;3.50;;;;;;;21.68;100.00;151487.75;6244818;23;20258;-62
2023/05/24 10:01:35;;;;;;;3.95;3.58;;;;;;;21.56;100.00;151457.13;6244561;23;20247;-62
2023/05/24 10:04:05;;;;;;;4.43;3.05;;;;;;;21.34;100.00;151403.63;6245035;23;20222;-62
2023/05/24 10:06:36;;;;;;;3.83;3.63;;;;;;;21.56;100.00;151457.13;6244638;23;20477;-62
2023/05/24 10:09:06;;;;;;;3.50;3.40;;;;;;;21.72;100.00;151499.25;6244331;23;20193;-64
2023/05/24 10:11:35;;;;;;;5.13;2.90;;;;;;;21.75;100.00;151506.88;6244457;23;20171;-61
2023/05/24 10:14:04;;;;;;;3.53;3.22;;;;;;;21.90;100.00;151542.59;6244381;23;20157;-61
2023/05/24 10:16:36;;;;;;;3.25;2.90;;;;;;;22.26;100.00;151635.69;6244316;23;20157;-63
2023/05/24 10:19:03;;;;;;;3.17;2.97;;;;;;;22.50;100.00;151694.31;6244244;23;20246;-62
2023/05/24 10:21:32;;;;;;;3.55;2.70;;;;;;;22.59;100.00;151717.28;6244413;23;20168;-62
2023/05/24 10:24:02;;;;;;;2.72;2.35;;;;;;;22.83;100.00;151778.53;6244674;23;20596;-62
2023/05/24 10:26:32;;;;;;;3.05;2.80;;;;;;;22.61;100.00;151722.41;6244257;23;20171;-62
2023/05/24 10:29:05;;;;;;;3.28;3.08;;;;;;;22.52;100.00;151700.72;6244628;23;20181;-61
2023/05/24 10:31:34;;;;;;;3.97;2.70;;;;;;;22.32;100.00;151650.97;6243931;23;20512;-61
2023/05/24 10:34:05;;;;;;;3.60;3.30;;;;;;;22.35;100.00;151657.38;6244399;23;20599;-63
2023/05/24 10:36:33;;;;;;;2.47;2.38;;;;;;;22.29;100.00;151642.03;6244386;23;20603;-62
2023/05/24 10:39:00;;;;;;;3.72;3.33;;;;;;;22.14;100.00;151605.09;6244030;23;20178;-62
2023/05/24 10:41:27;;;;;;;5.00;2.70;;;;;;;22.25;100.00;151631.84;6243850;23;20157;-62
2023/05/24 10:43:57;;;;;;;3.22;3.00;;;;;;;22.04;100.00;151578.28;6243778;23;20245;-62
2023/05/24 10:46:24;;;;;;;3.33;3.13;;;;;;;21.89;100.00;151541.31;6244393;23;20240;-62
2023/05/24 10:49:04;;;;;;;3.35;3.15;;;;;;;21.95;100.00;151555.34;6244045;23;20180;-63
2023/05/24 10:51:35;;;;;;;3.10;2.90;;;;;;;21.71;100.00;151496.69;6244034;23;20164;-62
2023/05/24 10:54:19;;;;;;;5.30;3.00;;;;;;;21.48;100.00;151438.03;6244140;23;20168;-58
2023/05/24 10:56:48;;;;;;;3.35;3.20;;;;;;;21.58;100.00;151462.25;6243961;23;20157;-57
2023/05/24 10:59:30;;;;;;;2.92;2.80;;;;;;;21.59;100.00;151464.81;6244255;23;20159;-57
2023/05/24 11:01:58;;;;;;;4.57;3.33;;;;;;;21.57;100.00;151460.97;6243844;23;20160;-57
2023/05/24 11:04:28;;;;;;;4.50;3.10;;;;;;;21.65;100.00;151480.09;6243837;23;20163;-57
2023/05/24 11:06:56;;;;;;;3.00;2.80;;;;;;;21.65;100.00;151480.09;6243809;23;20167;-57
2023/05/24 11:09:24;;;;;;;3.30;3.10;;;;;;;21.25;100.00;151379.44;6243746;23;20161;-58
2023/05/24 11:11:55;;;;;;;4.10;2.90;;;;;;;21.34;100.00;151403.63;6244219;23;20164;-57